Main page
Satellite images 15-day forecastsClimateMarine weather Cyclones Lightning AirportsFAQ Newsletter About
Weather : Europe Africa North America South America Asia Australia-Oceania Others
Languages Contact

Mangalore, India

Bajpe

latitude: 12-55N, longitude: 074-53E, elevation: 102 m


METAR: missing
TAF: VOML 301200Z 3015/3024 11005KT 6000 SCT012 BKN080 TEMPO 3015/3018 3000 TSRA/RA SCT012 FEW025CB BKN080 TEMPO 3022/3024 2000 DZ/BR SCT005 SCT012 BKN080

Time: 21:20 (15:50 UTC)

Forecast

The report was made 03 hours and 50 minutes ago, at 12:00 UTC  
Forecast valid from 30 at 15 UTC to 30 at 24 UTC
Wind 05 kt from the East/Southeast
Visibility 6000 m
Scattered clouds at a height of 1200 ft
Broken clouds at a height of 8000 ft
Temporary
from 30 at 15 UTC to 30 at 18 UTC
Visibility 3000 m
Scattered clouds at a height of 1200 ft
Few clouds at a height of 2500 ft , Cumulonimbus.
Broken clouds at a height of 8000 ft
Temporary
from 30 at 22 UTC to 30 at 24 UTC
Visibility 2000 m
Scattered clouds at a height of 500 ft
Scattered clouds at a height of 1200 ft
Broken clouds at a height of 8000 ft
The information on this site is subject to a disclaimer
Weather : Europe Africa North America South America Asia Australia-Oceania Others
Satellite images 15-day forecastsClimateMarine weather Cyclones Lightning AirportsFAQ Languages Contact Newsletter About